Time;durP1;ratioP1;P1;durP2;ratioP2;P2;SDS_P1;SDS_P2;PMS_P1;PMS_P2;Temp;Humidity;BMP_temperature;BMP_pressure;BME280_temperature;BME280_humidity;BME280_pressure;Samples;Min_cycle;Max_cycle;Signal;HPM_P1;HPM_P2
2024/01/25 00:00:51;;;;;;;28.83;5.10;;;7.90;99.90;;;;;;5089701;28;20061;-64
2024/01/25 00:03:16;;;;;;;28.73;5.88;;;7.90;99.90;;;;;;5093825;28;20036;-64
2024/01/25 00:05:42;;;;;;;23.20;4.95;;;7.90;99.90;;;;;;5084926;28;20129;-64
2024/01/25 00:08:08;;;;;;;23.27;5.72;;;7.90;99.90;;;;;;5089511;28;20122;-64
2024/01/25 00:10:34;;;;;;;32.70;6.68;;;7.90;99.90;;;;;;5089452;28;20123;-64
2024/01/25 00:12:59;;;;;;;30.02;5.10;;;7.90;99.90;;;;;;5090125;28;20039;-64
2024/01/25 00:15:25;;;;;;;27.98;5.85;;;7.80;99.90;;;;;;5089379;28;20501;-64
2024/01/25 00:17:50;;;;;;;20.42;4.85;;;7.70;99.90;;;;;;5120192;27;20126;-64
2024/01/25 00:20:16;;;;;;;34.90;6.28;;;7.70;99.90;;;;;;5088719;28;20563;-64
2024/01/25 00:22:42;;;;;;;29.67;6.15;;;7.60;99.90;;;;;;5081743;28;20037;-64
2024/01/25 00:25:07;;;;;;;30.60;5.15;;;7.60;99.90;;;;;;5085888;28;20512;-64
2024/01/25 00:27:33;;;;;;;28.00;5.43;;;7.60;99.90;;;;;;5085271;28;20040;-64
2024/01/25 00:29:59;;;;;;;28.38;5.30;;;7.60;99.90;;;;;;5090512;28;20032;-64
2024/01/25 00:32:25;;;;;;;24.77;5.57;;;7.50;99.90;;;;;;5079085;28;20084;-64
2024/01/25 00:34:50;;;;;;;24.50;4.85;;;7.50;99.90;;;;;;5082665;28;20110;-64
2024/01/25 00:37:16;;;;;;;31.05;6.05;;;7.40;99.90;;;;;;5116756;27;20040;-64
2024/01/25 00:39:42;;;;;;;27.58;5.95;;;7.40;99.90;;;;;;5085839;28;20044;-64
2024/01/25 00:42:12;;;;;;;28.85;5.75;;;7.30;99.90;;;;;;5072311;28;20044;-64
2024/01/25 00:44:38;;;;;;;28.05;5.20;;;7.40;99.90;;;;;;5088003;28;20052;-64
2024/01/25 00:47:04;;;;;;;26.75;4.97;;;7.30;99.90;;;;;;5089668;28;20051;-64
2024/01/25 00:49:30;;;;;;;29.48;5.45;;;7.30;99.90;;;;;;5090730;28;20044;-64
2024/01/25 00:52:00;;;;;;;29.58;5.18;;;7.30;99.90;;;;;;5085749;28;20096;-64
2024/01/25 00:54:25;;;;;;;27.35;6.65;;;7.20;99.90;;;;;;5085838;28;20069;-64
2024/01/25 00:56:52;;;;;;;27.88;5.95;;;7.20;99.90;;;;;;5081605;28;20047;-64
2024/01/25 00:59:19;;;;;;;31.45;6.85;;;7.10;99.90;;;;;;5120208;27;20040;-64
2024/01/25 01:01:47;;;;;;;31.20;6.78;;;7.10;99.90;;;;;;5117190;27;20036;-64
2024/01/25 01:04:12;;;;;;;30.73;5.30;;;7.10;99.90;;;;;;5089600;28;20433;-64
2024/01/25 01:06:38;;;;;;;37.22;6.78;;;7.10;99.90;;;;;;5087687;28;20135;-64
2024/01/25 01:09:04;;;;;;;26.95;5.32;;;7.00;99.90;;;;;;5088192;28;20047;-64
2024/01/25 01:11:30;;;;;;;29.05;5.40;;;7.00;99.90;;;;;;5083815;28;20036;-64
2024/01/25 01:13:56;;;;;;;31.52;5.55;;;7.00;99.90;;;;;;5084364;28;20528;-64
2024/01/25 01:16:21;;;;;;;29.25;5.30;;;6.90;99.90;;;;;;5082756;28;20050;-64
2024/01/25 01:18:47;;;;;;;36.72;7.47;;;6.90;99.90;;;;;;5089659;28;20130;-64
2024/01/25 01:21:13;;;;;;;27.50;5.65;;;6.90;99.90;;;;;;5087246;28;20752;-64
2024/01/25 01:23:38;;;;;;;28.42;6.20;;;6.90;99.90;;;;;;5084667;28;20040;-64
2024/01/25 01:26:04;;;;;;;28.05;4.97;;;6.90;99.90;;;;;;5115280;27;20048;-64
2024/01/25 01:28:30;;;;;;;27.20;5.45;;;6.90;99.90;;;;;;5084448;28;20138;-64
2024/01/25 01:30:55;;;;;;;27.65;5.38;;;6.90;99.90;;;;;;5087328;28;20034;-64
2024/01/25 01:33:21;;;;;;;36.30;6.43;;;6.80;99.90;;;;;;5087297;28;20098;-64
2024/01/25 01:35:47;;;;;;;35.22;6.15;;;6.80;99.90;;;;;;5084624;28;20028;-64
2024/01/25 01:38:12;;;;;;;28.08;5.25;;;6.80;99.90;;;;;;5082068;28;20039;-64
2024/01/25 01:40:38;;;;;;;28.73;6.50;;;6.80;99.90;;;;;;5080486;28;20075;-64
2024/01/25 01:43:04;;;;;;;37.45;6.85;;;6.70;99.90;;;;;;5083467;28;20036;-64
2024/01/25 01:45:29;;;;;;;42.22;6.72;;;6.70;99.90;;;;;;5085762;28;20083;-64
2024/01/25 01:47:56;;;;;;;29.17;6.55;;;6.70;99.90;;;;;;5082560;28;20085;-64
2024/01/25 01:50:23;;;;;;;31.17;5.63;;;6.90;99.90;;;;;;5088840;28;20047;-64
2024/01/25 01:52:49;;;;;;;29.40;4.95;;;6.60;99.90;;;;;;5086743;28;20032;-64
2024/01/25 01:55:16;;;;;;;32.78;7.63;;;6.60;99.90;;;;;;5083124;28;20044;-64
2024/01/25 01:57:43;;;;;;;38.25;6.70;;;6.60;99.90;;;;;;5087951;28;20084;-64
2024/01/25 02:00:09;;;;;;;29.10;5.15;;;6.50;99.90;;;;;;5085162;28;20056;-64
2024/01/25 02:02:35;;;;;;;36.85;6.70;;;6.40;99.90;;;;;;5084970;28;20040;-64
2024/01/25 02:05:01;;;;;;;27.25;4.72;;;6.40;99.90;;;;;;5084916;28;20371;-64
2024/01/25 02:07:28;;;;;;;37.50;6.70;;;6.50;99.90;;;;;;5085824;28;20055;-64
2024/01/25 02:09:53;;;;;;;30.77;5.50;;;6.40;99.90;;;;;;5082580;28;20048;-64
2024/01/25 02:12:19;;;;;;;35.53;6.70;;;6.30;99.90;;;;;;5083414;28;20089;-64
2024/01/25 02:14:45;;;;;;;27.35;5.53;;;6.40;99.90;;;;;;5087000;28;20036;-64
2024/01/25 02:17:10;;;;;;;36.53;6.55;;;6.30;99.90;;;;;;5084230;28;20028;-64
2024/01/25 02:19:36;;;;;;;30.33;5.95;;;6.30;99.90;;;;;;5114125;27;20040;-64
2024/01/25 02:22:04;;;;;;;32.60;5.57;;;6.30;99.90;;;;;;5088192;28;20048;-64
2024/01/25 02:24:30;;;;;;;32.05;5.15;;;6.30;99.90;;;;;;5084308;28;20533;-64
2024/01/25 02:26:56;;;;;;;36.78;6.93;;;6.30;99.90;;;;;;5086605;28;20044;-64
2024/01/25 02:29:22;;;;;;;40.88;7.80;;;6.20;99.90;;;;;;5086878;28;20045;-64
2024/01/25 02:31:48;;;;;;;27.50;5.13;;;6.20;99.90;;;;;;5087788;28;20382;-64
2024/01/25 02:34:13;;;;;;;30.13;6.07;;;6.20;99.90;;;;;;5084818;28;20040;-64
2024/01/25 02:36:39;;;;;;;30.10;5.55;;;6.20;99.90;;;;;;5083995;28;20045;-64
2024/01/25 02:39:05;;;;;;;31.98;5.85;;;6.20;99.90;;;;;;5120226;27;20447;-64
2024/01/25 02:41:32;;;;;;;32.78;6.53;;;6.20;99.90;;;;;;5088231;28;20032;-64
2024/01/25 02:43:58;;;;;;;34.65;5.47;;;6.00;99.90;;;;;;5084765;28;20055;-64
2024/01/25 02:46:23;;;;;;;32.30;5.93;;;6.10;99.90;;;;;;5084441;28;20045;-64
2024/01/25 02:48:49;;;;;;;34.63;6.25;;;6.00;99.90;;;;;;5113735;27;20514;-64
2024/01/25 02:51:14;;;;;;;28.92;5.00;;;6.00;99.90;;;;;;5085045;28;20044;-64
2024/01/25 02:53:41;;;;;;;29.17;5.60;;;6.00;99.90;;;;;;5087748;28;20437;-64
2024/01/25 02:56:07;;;;;;;30.48;5.28;;;6.00;99.90;;;;;;5119891;27;20044;-64
2024/01/25 02:58:32;;;;;;;33.65;4.85;;;6.00;99.90;;;;;;5088350;28;20563;-63
2024/01/25 03:00:58;;;;;;;31.33;4.82;;;6.00;99.90;;;;;;5090315;28;20116;-64
2024/01/25 03:03:24;;;;;;;25.33;4.93;;;6.00;99.90;;;;;;5093178;28;20036;-64
2024/01/25 03:05:53;;;;;;;29.45;5.55;;;5.90;99.90;;;;;;5118294;27;20070;-64
2024/01/25 03:08:18;;;;;;;28.98;5.35;;;5.90;99.90;;;;;;5087119;28;20047;-64
2024/01/25 03:10:44;;;;;;;26.02;4.18;;;5.90;99.90;;;;;;5081084;28;20491;-64
2024/01/25 03:13:09;;;;;;;27.98;5.53;;;5.80;99.90;;;;;;5085578;28;20081;-64
2024/01/25 03:15:35;;;;;;;25.52;6.75;;;5.90;99.90;;;;;;5086724;28;20036;-64
2024/01/25 03:18:00;;;;;;;30.92;6.20;;;5.80;99.90;;;;;;5100899;27;20067;-64
2024/01/25 03:20:26;;;;;;;32.65;5.10;;;5.80;99.90;;;;;;5116641;27;20483;-65
2024/01/25 03:22:52;;;;;;;35.47;6.68;;;5.80;99.90;;;;;;5088592;28;20027;-64
2024/01/25 03:25:17;;;;;;;38.25;5.90;;;5.80;99.90;;;;;;5090838;28;20084;-64
2024/01/25 03:27:43;;;;;;;27.23;5.25;;;5.80;99.90;;;;;;5087133;28;20150;-64
2024/01/25 03:30:09;;;;;;;36.53;5.28;;;5.70;99.90;;;;;;5090644;28;20478;-64
2024/01/25 03:32:35;;;;;;;32.35;5.45;;;5.80;99.90;;;;;;5085382;28;20466;-64
2024/01/25 03:35:01;;;;;;;44.33;6.45;;;5.80;99.90;;;;;;5115574;27;20051;-64
2024/01/25 03:37:27;;;;;;;35.78;5.70;;;5.70;99.90;;;;;;5087564;28;20039;-64
2024/01/25 03:39:52;;;;;;;37.05;5.95;;;5.80;99.90;;;;;;5086797;28;20055;-64
2024/01/25 03:42:18;;;;;;;34.08;6.32;;;5.80;99.90;;;;;;5088094;28;20047;-64
2024/01/25 03:44:44;;;;;;;25.65;6.30;;;5.80;99.90;;;;;;5088485;28;20431;-64
2024/01/25 03:47:10;;;;;;;29.00;5.00;;;5.70;99.90;;;;;;5088500;28;20426;-64
2024/01/25 03:49:36;;;;;;;29.08;4.93;;;5.70;99.90;;;;;;5086852;28;20052;-64
2024/01/25 03:52:04;;;;;;;26.48;5.25;;;5.70;99.90;;;;;;5090896;28;20040;-64
2024/01/25 03:54:29;;;;;;;34.70;6.18;;;5.70;99.90;;;;;;5122969;27;20078;-64
2024/01/25 03:56:55;;;;;;;36.90;5.13;;;5.70;99.90;;;;;;5087374;28;20446;-64
2024/01/25 03:59:20;;;;;;;31.63;5.90;;;5.60;99.90;;;;;;5089533;28;20044;-64
2024/01/25 04:01:47;;;;;;;32.65;5.10;;;5.60;99.90;;;;;;5086879;28;20042;-64
2024/01/25 04:04:15;;;;;;;32.67;5.43;;;5.60;99.90;;;;;;5119632;27;20058;-64
2024/01/25 04:06:47;;;;;;;27.50;5.55;;;5.60;99.90;;;;;;5091161;28;20051;-64
2024/01/25 04:09:14;;;;;;;38.00;5.53;;;5.60;99.90;;;;;;5088624;28;20039;-64
2024/01/25 04:11:40;;;;;;;28.20;5.15;;;5.60;99.90;;;;;;5082773;28;20040;-64
2024/01/25 04:14:05;;;;;;;28.63;5.57;;;5.60;99.90;;;;;;5118207;27;20419;-64
2024/01/25 04:16:32;;;;;;;37.88;6.03;;;5.50;99.90;;;;;;5087472;28;21070;-64
2024/01/25 04:18:58;;;;;;;40.92;5.97;;;5.50;99.90;;;;;;5089218;28;20042;-64
2024/01/25 04:21:23;;;;;;;32.88;7.97;;;5.50;99.90;;;;;;5087926;28;20462;-64
2024/01/25 04:23:49;;;;;;;31.73;5.60;;;5.50;99.90;;;;;;5086380;28;20078;-64
2024/01/25 04:26:16;;;;;;;30.85;5.13;;;5.50;99.90;;;;;;5086613;28;20177;-64
2024/01/25 04:28:42;;;;;;;29.42;5.32;;;5.40;99.90;;;;;;5116645;27;20051;-64
2024/01/25 04:31:07;;;;;;;36.53;5.53;;;5.40;99.90;;;;;;5086434;28;20032;-64
2024/01/25 04:33:33;;;;;;;34.72;6.65;;;5.40;99.90;;;;;;5091696;28;20040;-64
2024/01/25 04:35:59;;;;;;;30.48;5.35;;;5.40;99.90;;;;;;5120540;27;20047;-64
2024/01/25 04:38:25;;;;;;;30.23;5.47;;;5.90;99.90;;;;;;5088255;28;20395;-64
2024/01/25 04:40:51;;;;;;;32.85;5.38;;;5.40;99.90;;;;;;5119624;27;20113;-64
2024/01/25 04:43:16;;;;;;;26.77;5.10;;;5.40;99.90;;;;;;5083606;28;20117;-64
2024/01/25 04:45:42;;;;;;;33.00;5.63;;;5.40;99.90;;;;;;5082439;28;20047;-64
2024/01/25 04:48:08;;;;;;;36.22;6.85;;;5.30;99.90;;;;;;5090239;28;20044;-64
2024/01/25 04:50:34;;;;;;;35.63;7.03;;;5.30;99.90;;;;;;5084123;28;20044;-64
2024/01/25 04:53:02;;;;;;;31.33;5.00;;;5.20;99.90;;;;;;5118568;27;20405;-64
2024/01/25 04:55:28;;;;;;;32.03;6.57;;;5.20;99.90;;;;;;5088419;28;20046;-64
2024/01/25 04:57:53;;;;;;;34.05;5.53;;;5.20;99.90;;;;;;5088381;28;20044;-64
2024/01/25 05:00:21;;;;;;;29.80;5.53;;;5.10;99.90;;;;;;5080897;28;20653;-64
2024/01/25 05:02:47;;;;;;;29.15;4.63;;;5.10;99.90;;;;;;5114198;27;20048;-64
2024/01/25 05:05:13;;;;;;;37.50;5.47;;;5.10;99.90;;;;;;5086124;28;20128;-64
2024/01/25 05:07:39;;;;;;;28.20;4.45;;;5.10;99.90;;;;;;5092528;28;20447;-64
2024/01/25 05:10:05;;;;;;;36.60;5.85;;;5.00;99.90;;;;;;5084666;28;20123;-64
2024/01/25 05:12:30;;;;;;;26.73;4.65;;;5.00;99.90;;;;;;5086208;28;20507;-64
2024/01/25 05:14:56;;;;;;;29.02;5.68;;;4.90;99.90;;;;;;5085320;28;20044;-64
2024/01/25 05:17:22;;;;;;;34.28;5.45;;;4.90;99.90;;;;;;5083925;28;20028;-64
2024/01/25 05:19:47;;;;;;;32.95;6.90;;;4.90;99.90;;;;;;5084505;28;20079;-64
2024/01/25 05:22:13;;;;;;;39.72;5.88;;;4.90;99.90;;;;;;5115882;27;20043;-64
2024/01/25 05:24:39;;;;;;;32.75;5.90;;;4.90;99.90;;;;;;5086016;28;20470;-64
2024/01/25 05:27:04;;;;;;;42.88;6.15;;;4.80;99.90;;;;;;5077776;28;20063;-64
2024/01/25 05:29:30;;;;;;;35.65;7.68;;;4.70;99.90;;;;;;5078859;28;20483;-64
2024/01/25 05:31:56;;;;;;;30.30;5.20;;;4.70;99.90;;;;;;5078050;28;20550;-64
2024/01/25 05:34:21;;;;;;;32.25;6.35;;;4.70;99.90;;;;;;5079674;28;20035;-64
2024/01/25 05:36:47;;;;;;;36.47;6.82;;;4.70;99.90;;;;;;5081292;28;20699;-64
2024/01/25 05:39:14;;;;;;;33.08;5.35;;;4.70;99.90;;;;;;5080285;28;20032;-64
2024/01/25 05:41:40;;;;;;;34.67;6.97;;;4.70;99.90;;;;;;5079241;28;20055;-64
2024/01/25 05:44:05;;;;;;;41.92;6.95;;;4.60;99.90;;;;;;5079561;28;20048;-64
2024/01/25 05:46:31;;;;;;;37.55;6.00;;;4.60;99.90;;;;;;5062977;28;20052;-64
2024/01/25 05:48:57;;;;;;;45.20;7.70;;;4.60;99.90;;;;;;5077671;28;20113;-64
2024/01/25 05:51:23;;;;;;;41.42;5.57;;;4.60;99.90;;;;;;5109244;27;20032;-64
2024/01/25 05:53:48;;;;;;;38.65;5.25;;;4.60;99.90;;;;;;5077720;28;20044;-64
2024/01/25 05:56:14;;;;;;;42.30;5.28;;;4.50;99.90;;;;;;5077824;28;20429;-64
2024/01/25 05:58:40;;;;;;;40.67;5.70;;;4.60;99.90;;;;;;5078424;28;20075;-64
2024/01/25 06:01:06;;;;;;;36.25;5.20;;;4.50;99.90;;;;;;5081497;28;20044;-64
2024/01/25 06:03:32;;;;;;;40.97;6.63;;;4.50;99.90;;;;;;5077465;28;20543;-64
2024/01/25 06:05:58;;;;;;;28.15;4.78;;;4.50;99.90;;;;;;5080273;28;20123;-64
2024/01/25 06:08:23;;;;;;;40.85;5.95;;;4.50;99.90;;;;;;5078272;28;20460;-64
2024/01/25 06:10:49;;;;;;;34.40;6.85;;;4.50;99.90;;;;;;5078193;28;20131;-64
2024/01/25 06:13:15;;;;;;;35.10;5.30;;;4.40;99.90;;;;;;5083486;28;20036;-64
2024/01/25 06:15:41;;;;;;;32.60;5.88;;;4.50;99.90;;;;;;5077701;28;20036;-64
2024/01/25 06:18:07;;;;;;;31.92;5.53;;;4.50;99.90;;;;;;5109529;27;20068;-64
2024/01/25 06:20:32;;;;;;;36.33;5.13;;;4.40;99.90;;;;;;5078951;28;20111;-64
2024/01/25 06:22:59;;;;;;;36.80;5.75;;;4.50;99.90;;;;;;5076704;28;20136;-64
2024/01/25 06:25:28;;;;;;;34.92;5.13;;;4.40;99.90;;;;;;5080645;28;20127;-65
2024/01/25 06:27:54;;;;;;;42.13;5.97;;;4.40;99.90;;;;;;5080785;28;20051;-64
2024/01/25 06:30:22;;;;;;;37.97;5.68;;;4.40;99.90;;;;;;5082449;28;20144;-64
2024/01/25 06:32:47;;;;;;;44.72;7.18;;;4.40;99.90;;;;;;5079457;28;20036;-64
2024/01/25 06:35:14;;;;;;;29.48;5.80;;;4.40;99.90;;;;;;5081226;28;20082;-64
2024/01/25 06:37:39;;;;;;;40.92;6.15;;;4.50;99.90;;;;;;5062462;28;20043;-64
2024/01/25 06:40:06;;;;;;;32.08;5.53;;;4.40;99.90;;;;;;5081505;28;20378;-64
2024/01/25 06:42:31;;;;;;;41.88;7.18;;;4.40;99.90;;;;;;5081291;28;20195;-64
2024/01/25 06:44:57;;;;;;;37.95;5.95;;;4.40;99.90;;;;;;5083534;28;20178;-64
2024/01/25 06:47:22;;;;;;;40.53;6.80;;;4.40;99.90;;;;;;5120612;27;20047;-64
2024/01/25 06:49:51;;;;;;;40.75;5.47;;;4.40;99.90;;;;;;5086815;28;20038;-64
2024/01/25 06:52:17;;;;;;;41.22;5.95;;;4.30;99.90;;;;;;5092543;28;20028;-64
2024/01/25 06:54:43;;;;;;;38.05;5.45;;;4.30;99.90;;;;;;5087016;28;20071;-64
2024/01/25 06:57:09;;;;;;;39.50;6.18;;;4.30;99.90;;;;;;5120647;27;20082;-64
2024/01/25 06:59:34;;;;;;;34.08;5.82;;;4.30;99.90;;;;;;5089460;28;20040;-64
2024/01/25 07:02:02;;;;;;;39.72;5.22;;;4.30;99.90;;;;;;5078311;28;20047;-64
2024/01/25 07:04:28;;;;;;;40.30;5.57;;;4.30;99.90;;;;;;5093769;27;20058;-64
2024/01/25 07:06:54;;;;;;;40.17;6.47;;;4.30;99.90;;;;;;5078317;28;20071;-64
2024/01/25 07:09:20;;;;;;;44.22;5.57;;;4.30;99.90;;;;;;5109123;27;20489;-64
2024/01/25 07:11:46;;;;;;;35.15;6.03;;;4.30;99.90;;;;;;5082586;28;20024;-65
2024/01/25 07:14:11;;;;;;;42.17;6.25;;;4.30;99.90;;;;;;5079741;28;20129;-64
2024/01/25 07:16:37;;;;;;;47.10;6.60;;;4.30;99.90;;;;;;5061655;28;20051;-64
2024/01/25 07:19:03;;;;;;;48.47;6.68;;;4.40;99.90;;;;;;5085607;28;20052;-64
2024/01/25 07:21:32;;;;;;;40.08;6.03;;;4.40;99.90;;;;;;5085565;28;20562;-65
2024/01/25 07:24:02;;;;;;;39.13;5.28;;;4.30;99.90;;;;;;5116200;27;20047;-64
2024/01/25 07:26:28;;;;;;;48.67;7.60;;;4.40;99.90;;;;;;5118130;27;20050;-64
2024/01/25 07:28:57;;;;;;;47.33;6.28;;;4.40;99.90;;;;;;5086413;28;20040;-64
2024/01/25 07:31:25;;;;;;;40.70;6.20;;;4.30;99.90;;;;;;5085395;28;20375;-64
2024/01/25 07:33:50;;;;;;;34.80;5.53;;;4.30;99.90;;;;;;5090553;28;20064;-65
2024/01/25 07:36:18;;;;;;;43.13;6.13;;;4.30;99.90;;;;;;5082346;28;20493;-64
2024/01/25 07:38:46;;;;;;;35.33;5.38;;;4.20;99.90;;;;;;5078668;28;20036;-64
2024/01/25 07:41:15;;;;;;;33.67;5.68;;;4.20;99.90;;;;;;5068064;28;20519;-64
2024/01/25 07:43:41;;;;;;;36.90;6.45;;;4.20;99.90;;;;;;5069093;28;20040;-64
2024/01/25 07:46:07;;;;;;;39.63;6.13;;;4.20;99.90;;;;;;5070380;28;20121;-64
2024/01/25 07:48:33;;;;;;;33.00;6.68;;;4.20;99.90;;;;;;5097570;27;20048;-64
2024/01/25 07:50:59;;;;;;;44.78;6.68;;;4.20;99.90;;;;;;5071737;28;20471;-64
2024/01/25 07:53:25;;;;;;;37.60;5.88;;;4.20;99.90;;;;;;5066436;28;20082;-64
2024/01/25 07:55:50;;;;;;;47.58;6.85;;;4.30;99.90;;;;;;5104363;27;20081;-64
2024/01/25 07:58:16;;;;;;;35.60;6.43;;;4.30;99.90;;;;;;5069937;28;20097;-64
2024/01/25 08:00:45;;;;;;;39.35;5.88;;;4.40;99.90;;;;;;5068816;28;20044;-64
2024/01/25 08:03:11;;;;;;;34.55;5.97;;;4.40;99.90;;;;;;5107460;27;20075;-64
2024/01/25 08:05:37;;;;;;;41.97;6.43;;;4.50;99.90;;;;;;5080298;28;20123;-64
2024/01/25 08:08:03;;;;;;;43.50;6.00;;;4.50;99.90;;;;;;5061642;28;20131;-64
2024/01/25 08:10:28;;;;;;;45.20;7.15;;;4.60;99.90;;;;;;5079418;28;20037;-64
2024/01/25 08:12:54;;;;;;;38.03;7.63;;;4.60;99.90;;;;;;5081803;28;20040;-64
2024/01/25 08:15:20;;;;;;;34.63;6.20;;;4.60;99.90;;;;;;5077694;28;20032;-64
2024/01/25 08:17:45;;;;;;;35.03;6.90;;;4.60;99.90;;;;;;5081594;28;20059;-64
2024/01/25 08:20:13;;;;;;;34.30;6.13;;;4.70;99.90;;;;;;5072997;28;20061;-64
2024/01/25 08:22:40;;;;;;;31.48;5.68;;;4.70;99.90;;;;;;5053184;28;20048;-64
2024/01/25 08:25:07;;;;;;;38.22;6.38;;;4.80;99.90;;;;;;5067698;28;20634;-64
2024/01/25 08:27:33;;;;;;;34.92;6.10;;;4.80;99.90;;;;;;5066098;28;20091;-64
2024/01/25 08:29:58;;;;;;;41.83;7.80;;;4.90;99.90;;;;;;5067755;28;20443;-65
2024/01/25 08:32:24;;;;;;;40.75;6.60;;;4.90;99.90;;;;;;5065818;28;20032;-64
2024/01/25 08:34:49;;;;;;;35.67;5.68;;;5.00;99.90;;;;;;5069189;28;20548;-64
2024/01/25 08:37:15;;;;;;;40.90;7.80;;;5.00;99.90;;;;;;5068961;28;20036;-64
2024/01/25 08:39:43;;;;;;;44.17;6.20;;;4.90;99.90;;;;;;5067500;28;20048;-64
2024/01/25 08:42:08;;;;;;;42.10;6.95;;;5.00;99.90;;;;;;5067578;28;20482;-64
2024/01/25 08:44:34;;;;;;;43.20;7.35;;;5.10;99.90;;;;;;5067969;28;20092;-64
2024/01/25 08:46:59;;;;;;;37.72;5.60;;;5.00;99.90;;;;;;5067462;28;20051;-64
2024/01/25 08:49:25;;;;;;;40.53;7.18;;;5.10;99.90;;;;;;5070160;28;20044;-64
2024/01/25 08:51:51;;;;;;;28.10;5.40;;;5.10;99.90;;;;;;5068641;28;20028;-64
2024/01/25 08:54:17;;;;;;;41.42;6.43;;;5.10;99.90;;;;;;5070512;28;20120;-64
2024/01/25 08:56:42;;;;;;;38.28;5.80;;;5.10;99.90;;;;;;5067914;28;20086;-64
2024/01/25 08:59:08;;;;;;;41.55;7.13;;;5.20;99.90;;;;;;5071269;28;20066;-64
2024/01/25 09:01:33;;;;;;;38.03;7.43;;;5.10;99.90;;;;;;5073533;28;20040;-64
2024/01/25 09:04:02;;;;;;;34.72;6.85;;;5.10;99.90;;;;;;5109448;27;20128;-64
2024/01/25 09:06:30;;;;;;;37.50;6.28;;;5.10;99.90;;;;;;5077971;28;20071;-64
2024/01/25 09:08:56;;;;;;;37.05;7.70;;;5.20;99.90;;;;;;5075320;28;20040;-64
2024/01/25 09:11:21;;;;;;;32.47;5.88;;;5.20;99.90;;;;;;5079070;28;20047;-64
2024/01/25 09:13:47;;;;;;;37.53;6.88;;;5.20;99.90;;;;;;5077451;28;20043;-64
2024/01/25 09:16:14;;;;;;;30.58;5.78;;;5.20;99.90;;;;;;5080656;28;20028;-64
2024/01/25 09:18:39;;;;;;;39.67;6.65;;;5.30;99.90;;;;;;5076256;28;20036;-64
2024/01/25 09:21:05;;;;;;;44.30;7.30;;;5.30;99.90;;;;;;5075322;28;20043;-64
2024/01/25 09:23:31;;;;;;;43.20;6.00;;;5.40;99.90;;;;;;5077141;28;20411;-64
2024/01/25 09:25:57;;;;;;;40.72;8.23;;;5.40;99.90;;;;;;5077416;28;20032;-64
2024/01/25 09:28:22;;;;;;;38.80;7.57;;;5.50;99.90;;;;;;5076033;28;20181;-65
2024/01/25 09:30:48;;;;;;;31.67;5.65;;;5.50;99.90;;;;;;5065067;28;20083;-64
2024/01/25 09:33:15;;;;;;;34.63;5.82;;;5.60;99.90;;;;;;5076030;28;20044;-64
2024/01/25 09:35:40;;;;;;;34.13;5.93;;;5.70;99.90;;;;;;5078647;28;20474;-65
2024/01/25 09:38:07;;;;;;;35.53;7.03;;;5.70;99.90;;;;;;5076332;28;20046;-64
2024/01/25 09:40:33;;;;;;;47.05;8.27;;;5.70;99.90;;;;;;5076393;28;20697;-64
2024/01/25 09:42:59;;;;;;;34.85;7.72;;;5.60;99.90;;;;;;5077579;28;20048;-65
2024/01/25 09:45:25;;;;;;;38.65;8.20;;;5.70;99.90;;;;;;5105573;27;20048;-64
2024/01/25 09:47:50;;;;;;;39.08;8.88;;;5.60;99.90;;;;;;5082478;28;20394;-64
2024/01/25 09:50:16;;;;;;;36.10;9.52;;;5.70;99.90;;;;;;5074906;28;20048;-65
2024/01/25 09:52:46;;;;;;;37.67;10.15;;;5.70;99.90;;;;;;5078272;28;20873;-65
2024/01/25 09:55:14;;;;;;;38.28;10.40;;;5.70;99.90;;;;;;5079410;28;20086;-65
2024/01/25 09:57:45;;;;;;;39.60;8.63;;;5.80;99.90;;;;;;5080114;28;20096;-64
2024/01/25 10:00:11;;;;;;;41.72;8.18;;;5.80;99.90;;;;;;5068700;28;20047;-64
2024/01/25 10:02:38;;;;;;;36.33;8.50;;;5.80;99.90;;;;;;5077774;28;20040;-64
2024/01/25 10:05:04;;;;;;;33.20;6.45;;;5.80;99.90;;;;;;5077550;28;20036;-64
2024/01/25 10:07:40;;;;;;;36.25;7.63;;;5.80;99.90;;;;;;5081511;28;20089;-64
2024/01/25 10:10:06;;;;;;;;;;;5.80;99.90;;;;;;5114413;27;20036;-64
2024/01/25 10:12:32;;;;;;;44.47;8.32;;;5.90;99.90;;;;;;5081430;28;19956;-64
2024/01/25 10:14:58;;;;;;;41.58;7.65;;;5.90;99.90;;;;;;5077749;28;20055;-64
2024/01/25 10:17:24;;;;;;;41.50;8.75;;;6.00;99.90;;;;;;5110424;27;20028;-65
2024/01/25 10:19:49;;;;;;;24.95;6.25;;;6.10;99.90;;;;;;5075709;28;20040;-64
2024/01/25 10:22:15;;;;;;;38.75;7.60;;;6.10;99.90;;;;;;5083736;28;20490;-64
2024/01/25 10:24:41;;;;;;;34.30;6.90;;;6.10;99.90;;;;;;5085934;28;20386;-65
2024/01/25 10:27:08;;;;;;;38.15;6.45;;;6.10;99.90;;;;;;5075157;28;20028;-64
2024/01/25 10:29:37;;;;;;;31.80;6.63;;;6.20;99.90;;;;;;5067343;28;20044;-64
2024/01/25 10:32:07;;;;;;;35.97;6.47;;;6.20;99.90;;;;;;5068712;28;21126;-64
2024/01/25 10:34:36;;;;;;;35.42;7.95;;;6.30;99.90;;;;;;5100475;27;20040;-65
2024/01/25 10:37:04;;;;;;;43.08;7.43;;;6.20;99.90;;;;;;5070212;28;20036;-64
2024/01/25 10:39:31;;;;;;;37.88;6.22;;;6.30;99.90;;;;;;5069107;28;20040;-64
2024/01/25 10:41:58;;;;;;;31.83;6.28;;;6.60;99.90;;;;;;5075632;28;20071;-64
2024/01/25 10:44:24;;;;;;;36.75;6.97;;;6.40;99.90;;;;;;5065187;28;20140;-64
2024/01/25 10:46:50;;;;;;;26.00;6.13;;;6.50;99.90;;;;;;5067451;28;20082;-64
2024/01/25 10:49:17;;;;;;;33.78;7.07;;;6.50;99.90;;;;;;5074049;28;20123;-64
2024/01/25 10:51:44;;;;;;;27.67;6.90;;;6.60;99.90;;;;;;5111402;27;20035;-65
2024/01/25 10:54:14;;;;;;;36.72;6.80;;;6.70;99.90;;;;;;5065551;28;20120;-64
2024/01/25 10:56:45;;;;;;;39.17;7.55;;;6.80;99.90;;;;;;5081407;28;20165;-64
2024/01/25 10:59:11;;;;;;;42.05;8.60;;;6.90;99.90;;;;;;5081518;28;20482;-64
2024/01/25 11:01:37;;;;;;;34.90;9.57;;;7.10;99.90;;;;;;5077415;28;20101;-65
2024/01/25 11:04:11;;;;;;;28.55;6.50;;;7.20;99.90;;;;;;5068174;28;20759;-64
2024/01/25 11:06:37;;;;;;;34.25;7.38;;;7.40;99.90;;;;;;5066514;28;20505;-64
2024/01/25 11:09:07;;;;;;;33.60;7.90;;;7.60;99.90;;;;;;5067862;28;20033;-64
2024/01/25 11:11:35;;;;;;;32.97;7.70;;;7.70;99.90;;;;;;5070758;28;20041;-65
2024/01/25 11:14:01;;;;;;;32.45;7.35;;;7.80;99.90;;;;;;5072420;28;20034;-65
2024/01/25 11:16:30;;;;;;;38.72;6.88;;;7.90;99.90;;;;;;5072036;28;20090;-65
2024/01/25 11:19:07;;;;;;;33.33;7.63;;;8.00;99.90;;;;;;5080975;28;20488;-64
2024/01/25 11:21:44;;;;;;;29.40;6.07;;;8.10;99.90;;;;;;5100207;27;20048;-65
2024/01/25 11:24:14;;;;;;;34.97;8.10;;;8.20;99.90;;;;;;5052687;28;20040;-64
2024/01/25 11:26:40;;;;;;;32.92;7.45;;;8.40;99.90;;;;;;5080800;28;21455;-65
2024/01/25 11:29:05;;;;;;;38.42;7.07;;;8.40;99.90;;;;;;5072524;28;20052;-65
2024/01/25 11:31:31;;;;;;;32.25;8.00;;;8.50;99.90;;;;;;5110885;27;20036;-65
2024/01/25 11:34:00;;;;;;;41.95;8.20;;;8.60;99.90;;;;;;5080245;28;20044;-65
2024/01/25 11:36:27;;;;;;;37.15;8.13;;;8.60;99.90;;;;;;5079282;28;20036;-65
2024/01/25 11:38:53;;;;;;;30.10;7.60;;;8.70;99.90;;;;;;5112763;27;20044;-65
2024/01/25 11:41:19;;;;;;;38.60;9.50;;;8.60;99.90;;;;;;5065714;28;20054;-65
2024/01/25 11:43:45;;;;;;;34.33;8.20;;;8.50;99.90;;;;;;5083161;28;20162;-65
2024/01/25 11:46:12;;;;;;;36.75;7.50;;;8.50;99.90;;;;;;5114268;27;20119;-65
2024/01/25 11:48:41;;;;;;;36.85;8.05;;;8.40;99.90;;;;;;5109309;27;20048;-65
2024/01/25 11:51:10;;;;;;;34.78;8.63;;;8.40;99.90;;;;;;5086357;28;20043;-64
2024/01/25 11:53:36;;;;;;;31.10;7.07;;;8.40;99.90;;;;;;5087426;28;20036;-65
2024/01/25 11:56:03;;;;;;;36.00;8.30;;;8.30;99.90;;;;;;5088077;28;20482;-65
2024/01/25 11:58:29;;;;;;;34.05;8.02;;;8.30;99.90;;;;;;5077107;28;20048;-65
2024/01/25 12:00:55;;;;;;;29.10;7.43;;;8.20;99.90;;;;;;5080115;28;20704;-65
2024/01/25 12:03:21;;;;;;;32.08;6.97;;;8.20;99.90;;;;;;5075998;28;20092;-65
2024/01/25 12:05:47;;;;;;;30.38;7.70;;;8.10;99.90;;;;;;5085849;28;21405;-65
2024/01/25 12:08:13;;;;;;;31.65;7.85;;;8.10;99.90;;;;;;5065359;28;20032;-65
2024/01/25 12:10:39;;;;;;;26.38;7.28;;;8.10;99.90;;;;;;5083065;28;20086;-65
2024/01/25 12:13:09;;;;;;;31.38;8.07;;;8.00;99.90;;;;;;5080471;28;20416;-64
2024/01/25 12:15:35;;;;;;;33.83;8.57;;;8.10;99.90;;;;;;5082635;28;20040;-64
2024/01/25 12:18:01;;;;;;;30.92;7.32;;;8.10;99.90;;;;;;5108834;27;20044;-65
2024/01/25 12:20:28;;;;;;;28.58;8.15;;;8.20;99.90;;;;;;5080023;28;20032;-65
2024/01/25 12:22:54;;;;;;;27.88;7.03;;;8.20;99.90;;;;;;5081155;28;20048;-65
2024/01/25 12:25:20;;;;;;;34.65;8.35;;;8.40;99.90;;;;;;5076395;28;20367;-65
2024/01/25 12:27:49;;;;;;;36.65;6.90;;;8.40;99.90;;;;;;5080437;28;20048;-65
2024/01/25 12:30:15;;;;;;;35.03;8.45;;;8.50;99.90;;;;;;5079404;28;20398;-65
2024/01/25 12:32:41;;;;;;;31.60;7.28;;;8.60;99.90;;;;;;5083385;28;20039;-64
2024/01/25 12:35:08;;;;;;;29.90;8.38;;;8.60;99.90;;;;;;5082446;28;20036;-65
2024/01/25 12:37:34;;;;;;;34.03;8.00;;;8.60;99.90;;;;;;5082507;28;20028;-65
2024/01/25 12:40:00;;;;;;;34.20;7.63;;;8.60;99.90;;;;;;5080627;28;20487;-65
2024/01/25 12:42:26;;;;;;;34.95;7.85;;;8.60;99.90;;;;;;5079893;28;20028;-65